メインページ
METAR-TAF:

METAR-TAF

空港 :

Floyd Bennett Memorial Airport

Glens Falls, ニューヨーク, アメリカ合衆国

緯度: 43-20-28N, 経度: 073-36-38W, 海抜: 100m

現時点の気象観測

当レポートは19分前の15:53(UTC)に作成
の風 4kt
気温 -13°C
湿度 61%
気圧 1031 hPa
視程: 16.1km
高度10000ftの曇り

METAR: KGFL 181553Z AUTO 01004KT 10SM OVC100 M13/M19 A3044 RMK AO2 SLP325 T11281189

時間: 11:12 (16:12 UTC)

予報

当レポートは4時間46分前の11:26(UTC)に作成
予報は18日の 12時(UTC)から 19日の 12時(UTC)まで有効
北/北東の風 3kt
視程: 10km
高度10000ftの雲は散在している
高度25000ftの曇り
18日の 1500時(UTC)から
北/北東の風 3kt
視程: 10km
高度10000ftの曇り
18日の 2000時(UTC)から
東/北東の風 5kt
視程: 3.2km
高度2000ftの曇り
小雪, 靄
18日の 2200時(UTC)から
南東の風 6kt
視程: 1.2km
高度800ftの
小雪, 靄
19日の 0500時(UTC)から
南/南東の風 5kt
視程: 4.8km
高度1200ftの曇り
靄, 近辺でにわか雨

TAF: KGFL 181126Z 1812/1912 03003KT P6SM SCT100 OVC250 FM181500 03003KT P6SM OVC100 FM182000 06005KT 2SM -SN BR OVC020 FM182200 14006KT 3/4SM -SN BR VV008 FM190500 16005KT 3SM BR VCSH OVC012

4,000以上の空港の気象観測と天気予報(METAR報とTAF報)

利用可能な観測所は地図上に黄色い丸と赤い丸で示す。

丸の上にカーソルを重ねると観測所名を参照できる。

次にクリックすると気象観測と天気予報を参照できる。

マップの切り替え:黒色「×」印の緑ボタンをクリックして拡大、「-」印の緑ボタンをクリックして縮小、緑色の三角印をクリックして隣りの地図に切り替え


METAR-TAF: